createdAt,value
2017-10-12T00:01:33.664Z,99.90
2017-10-12T00:03:59.928Z,99.90
2017-10-12T00:06:26.207Z,99.90
2017-10-12T00:08:53.257Z,99.90
2017-10-12T00:11:19.536Z,99.90
2017-10-12T00:13:45.860Z,99.90
2017-10-12T00:16:12.273Z,99.90
2017-10-12T00:18:38.628Z,99.90
2017-10-12T00:21:04.904Z,99.90
2017-10-12T00:23:31.940Z,99.90
2017-10-12T00:25:58.963Z,99.90
2017-10-12T00:28:25.276Z,99.90
2017-10-12T00:30:51.542Z,99.90
2017-10-12T00:33:18.745Z,99.90
2017-10-12T00:35:45.021Z,99.90
2017-10-12T00:38:12.040Z,99.90
2017-10-12T00:40:38.352Z,99.90
2017-10-12T00:43:04.672Z,99.90
2017-10-12T00:45:30.999Z,99.90
2017-10-12T00:47:57.300Z,99.90
2017-10-12T00:50:24.360Z,99.90
2017-10-12T00:52:50.668Z,99.90
2017-10-12T00:55:17.700Z,99.90
2017-10-12T00:57:44.020Z,99.90
2017-10-12T01:00:10.304Z,99.90
2017-10-12T01:02:36.750Z,99.90
2017-10-12T01:05:03.126Z,99.90
2017-10-12T01:07:29.410Z,99.90
2017-10-12T01:09:55.671Z,99.90
2017-10-12T01:12:21.940Z,99.90
2017-10-12T01:14:48.987Z,99.90
2017-10-12T01:17:16.058Z,99.90
2017-10-12T01:19:42.341Z,99.90
2017-10-12T01:22:08.605Z,99.90
2017-10-12T01:24:34.904Z,99.90
2017-10-12T01:27:01.938Z,99.90
2017-10-12T01:29:28.217Z,99.90
2017-10-12T01:31:54.552Z,99.90
2017-10-12T01:34:20.985Z,99.90
2017-10-12T01:36:47.255Z,99.90
2017-10-12T01:39:13.540Z,99.90
2017-10-12T01:41:39.825Z,99.90
2017-10-12T01:44:06.909Z,99.90
2017-10-12T01:46:33.214Z,99.90
2017-10-12T01:49:00.282Z,99.90
2017-10-12T01:51:26.598Z,99.90
2017-10-12T01:53:53.608Z,99.90
2017-10-12T01:56:19.912Z,99.90
2017-10-12T01:58:46.325Z,99.90
2017-10-12T02:01:12.716Z,99.90
2017-10-12T02:03:39.076Z,99.90
2017-10-12T02:06:05.404Z,99.90
2017-10-12T02:08:32.429Z,99.90
2017-10-12T02:10:58.723Z,99.90
2017-10-12T02:13:25.018Z,99.90
2017-10-12T02:15:52.048Z,99.90
2017-10-12T02:18:19.116Z,99.90
2017-10-12T02:20:45.404Z,99.90
2017-10-12T02:23:11.696Z,99.90
2017-10-12T02:25:37.988Z,99.90
2017-10-12T02:28:05.055Z,99.90
2017-10-12T02:30:31.348Z,99.90
2017-10-12T02:32:58.533Z,99.90
2017-10-12T02:35:25.047Z,99.90
2017-10-12T02:37:52.064Z,99.90
2017-10-12T02:40:18.376Z,99.90
2017-10-12T02:42:44.783Z,99.90
2017-10-12T02:45:11.108Z,99.90
2017-10-12T02:47:37.404Z,99.90
2017-10-12T02:50:04.451Z,99.90
2017-10-12T02:52:30.823Z,99.90
2017-10-12T02:54:57.130Z,99.90
2017-10-12T02:57:24.295Z,99.90
2017-10-12T02:59:50.635Z,99.90
2017-10-12T03:02:16.941Z,99.90
2017-10-12T03:04:43.964Z,99.90
2017-10-12T03:07:10.305Z,99.90
2017-10-12T03:09:37.349Z,99.90
2017-10-12T03:12:04.392Z,99.90
2017-10-12T03:14:30.672Z,99.90
2017-10-12T03:16:56.981Z,99.90
2017-10-12T03:19:23.296Z,99.90
2017-10-12T03:21:50.334Z,99.90
2017-10-12T03:24:17.368Z,99.90
2017-10-12T03:26:43.656Z,99.90
2017-10-12T03:29:09.923Z,99.90
2017-10-12T03:31:36.451Z,99.90
2017-10-12T03:34:02.768Z,99.90
2017-10-12T03:36:29.096Z,99.90
2017-10-12T03:38:55.391Z,99.90
2017-10-12T03:41:21.684Z,99.90
2017-10-12T03:43:48.003Z,99.90
2017-10-12T03:46:14.279Z,99.90
2017-10-12T03:48:40.605Z,99.90
2017-10-12T03:51:06.888Z,99.90
2017-10-12T03:53:33.231Z,99.90
2017-10-12T03:55:59.536Z,99.90
2017-10-12T03:58:25.827Z,99.90
2017-10-12T04:00:52.109Z,99.90
2017-10-12T04:03:18.372Z,99.90
2017-10-12T04:05:44.728Z,99.90
2017-10-12T04:08:11.137Z,99.90
2017-10-12T04:10:37.432Z,99.90
2017-10-12T04:13:03.704Z,99.90
2017-10-12T04:15:30.013Z,99.90
2017-10-12T04:17:57.115Z,99.90
2017-10-12T04:20:23.436Z,99.90
2017-10-12T04:22:49.708Z,99.90
2017-10-12T04:25:17.470Z,99.90
2017-10-12T04:27:43.791Z,99.90
2017-10-12T04:30:10.276Z,99.90
2017-10-12T04:32:36.580Z,99.90
2017-10-12T04:35:03.636Z,99.90
2017-10-12T04:37:29.943Z,99.90
2017-10-12T04:39:56.236Z,99.90
2017-10-12T04:42:22.822Z,99.90
2017-10-12T04:44:49.875Z,99.90
2017-10-12T04:47:16.896Z,99.90
2017-10-12T04:49:43.239Z,99.90
2017-10-12T04:52:10.285Z,99.90
2017-10-12T04:54:36.604Z,99.90
2017-10-12T04:57:02.889Z,99.90
2017-10-12T04:59:29.243Z,99.90
2017-10-12T05:01:55.528Z,99.90
2017-10-12T05:04:21.828Z,99.90
2017-10-12T05:06:48.103Z,99.90
2017-10-12T05:09:14.503Z,99.90
2017-10-12T05:11:41.532Z,99.90
2017-10-12T05:14:07.866Z,99.90
2017-10-12T05:16:34.152Z,99.90
2017-10-12T05:19:00.456Z,99.90
2017-10-12T05:21:27.468Z,99.90
2017-10-12T05:23:53.764Z,99.90
2017-10-12T05:26:20.072Z,99.90
2017-10-12T05:28:46.372Z,99.90
2017-10-12T05:31:13.456Z,99.90
2017-10-12T05:33:39.726Z,99.90
2017-10-12T05:36:06.183Z,99.90
2017-10-12T05:38:33.237Z,99.90
2017-10-12T05:41:00.347Z,99.90
2017-10-12T05:43:26.648Z,99.90
2017-10-12T05:45:52.956Z,99.90
2017-10-12T05:48:19.240Z,99.90
2017-10-12T05:50:45.544Z,99.90
2017-10-12T05:53:11.826Z,99.90
2017-10-12T05:55:38.892Z,99.90
2017-10-12T05:58:05.203Z,99.90
2017-10-12T06:00:32.243Z,99.90
2017-10-12T06:02:58.561Z,99.90
2017-10-12T06:05:24.803Z,99.90
2017-10-12T06:07:51.144Z,99.90
2017-10-12T06:10:18.174Z,99.90
2017-10-12T06:12:44.465Z,99.90
2017-10-12T06:15:10.863Z,99.90
2017-10-12T06:17:37.888Z,99.90
2017-10-12T06:20:04.245Z,99.90
2017-10-12T06:22:30.704Z,99.90
2017-10-12T06:24:57.014Z,99.90
2017-10-12T06:27:23.295Z,99.90
2017-10-12T06:29:49.636Z,99.90
2017-10-12T06:32:15.916Z,99.90
2017-10-12T06:34:42.208Z,99.90
2017-10-12T06:37:09.261Z,99.90
2017-10-12T06:39:36.315Z,99.90
2017-10-12T06:42:02.617Z,99.90
2017-10-12T06:44:29.046Z,99.90
2017-10-12T06:46:55.352Z,99.00
2017-10-12T06:49:21.625Z,98.70
2017-10-12T06:51:48.668Z,98.20
2017-10-12T06:54:15.708Z,98.90
2017-10-12T06:56:42.051Z,98.60
2017-10-12T06:59:08.336Z,98.50
2017-10-12T07:01:34.660Z,98.40
2017-10-12T07:04:01.286Z,98.50
2017-10-12T07:06:27.580Z,98.20
2017-10-12T07:08:54.626Z,94.70
2017-10-12T07:11:21.643Z,92.60
2017-10-12T07:13:47.941Z,92.50
2017-10-12T07:16:14.225Z,92.20
2017-10-12T07:18:40.569Z,92.00
2017-10-12T07:21:07.593Z,78.90
2017-10-12T07:23:33.888Z,78.90
2017-10-12T07:26:00.197Z,71.30
2017-10-12T07:28:26.607Z,59.40
2017-10-12T07:30:53.633Z,47.50
2017-10-12T07:33:19.905Z,47.40
2017-10-12T07:35:46.222Z,44.50
2017-10-12T07:38:12.516Z,41.10
2017-10-12T07:40:38.825Z,37.40
2017-10-12T07:43:05.192Z,37.60
2017-10-12T07:45:32.331Z,41.70
2017-10-12T07:47:59.369Z,44.80
2017-10-12T07:50:25.664Z,44.80
2017-10-12T07:52:51.963Z,47.40
2017-10-12T07:55:19.034Z,48.60
2017-10-12T07:57:45.323Z,48.60
2017-10-12T08:00:12.356Z,51.60
2017-10-12T08:02:38.700Z,51.60
2017-10-12T08:05:05.756Z,52.10
2017-10-12T08:07:32.951Z,48.30
2017-10-12T08:09:59.235Z,48.30
2017-10-12T08:12:26.252Z,50.50
2017-10-12T08:14:52.576Z,50.50
2017-10-12T08:17:18.857Z,52.80
2017-10-12T08:19:45.183Z,53.30
2017-10-12T08:22:12.211Z,49.10
2017-10-12T08:24:39.271Z,47.70
2017-10-12T08:27:06.332Z,44.20
2017-10-12T08:29:32.672Z,44.20
2017-10-12T08:31:58.963Z,41.00
2017-10-12T08:34:25.291Z,38.20
2017-10-12T08:36:51.596Z,36.60
2017-10-12T08:39:17.881Z,34.60
2017-10-12T08:41:44.193Z,33.90
2017-10-12T08:44:11.216Z,31.40
2017-10-12T08:46:38.268Z,30.70
2017-10-12T08:49:04.556Z,30.60
2017-10-12T08:51:30.877Z,30.50
2017-10-12T08:53:57.183Z,30.70
2017-10-12T08:56:24.207Z,31.10
2017-10-12T08:58:50.532Z,31.10
2017-10-12T09:01:17.586Z,32.00
2017-10-12T09:03:43.876Z,31.70
2017-10-12T09:06:10.160Z,31.70
2017-10-12T09:08:37.223Z,34.40
2017-10-12T09:11:03.524Z,34.30
2017-10-12T09:13:30.567Z,38.40
2017-10-12T09:15:56.972Z,38.30
2017-10-12T09:18:23.351Z,41.50
2017-10-12T09:20:50.408Z,47.80
2017-10-12T09:23:16.820Z,47.70
2017-10-12T09:25:43.857Z,54.00
2017-10-12T09:28:10.173Z,53.30
2017-10-12T09:30:36.461Z,54.50
2017-10-12T09:33:02.733Z,56.80
2017-10-12T09:35:29.053Z,57.90
2017-10-12T09:37:55.336Z,59.00
2017-10-12T09:40:21.620Z,57.40
2017-10-12T09:42:47.901Z,52.40
2017-10-12T09:45:14.213Z,51.30
2017-10-12T09:47:41.247Z,54.60
2017-10-12T09:50:07.570Z,54.70
2017-10-12T09:52:33.868Z,55.60
2017-10-12T09:55:00.176Z,54.00
2017-10-12T09:57:26.453Z,53.30
2017-10-12T09:59:52.731Z,52.60
2017-10-12T10:02:19.044Z,52.00
2017-10-12T10:04:46.070Z,53.80
2017-10-12T10:07:12.382Z,53.70
2017-10-12T10:09:38.741Z,54.20
2017-10-12T10:12:05.801Z,55.50
2017-10-12T10:14:32.097Z,55.50
2017-10-12T10:16:58.409Z,55.30
2017-10-12T10:19:24.730Z,54.70
2017-10-12T10:21:51.068Z,54.80
2017-10-12T10:24:17.363Z,56.10
2017-10-12T10:26:43.648Z,56.50
2017-10-12T10:29:09.992Z,56.00
2017-10-12T10:31:37.030Z,57.00
2017-10-12T10:34:03.342Z,56.40
2017-10-12T10:36:29.650Z,57.50
2017-10-12T10:38:55.950Z,58.00
2017-10-12T10:41:22.269Z,58.80
2017-10-12T10:43:49.313Z,60.60
2017-10-12T10:46:16.560Z,61.40
2017-10-12T10:48:43.580Z,61.10
2017-10-12T10:51:09.938Z,61.10
2017-10-12T10:53:37.136Z,60.60
2017-10-12T10:56:03.411Z,60.60
2017-10-12T10:58:29.681Z,56.90
2017-10-12T11:00:56.183Z,55.80
2017-10-12T11:03:23.264Z,52.80
2017-10-12T11:05:49.554Z,52.80
2017-10-12T11:08:15.900Z,52.20
2017-10-12T11:10:42.972Z,51.40
2017-10-12T11:13:09.320Z,51.40
2017-10-12T11:15:35.636Z,51.20
2017-10-12T11:18:01.943Z,51.00
2017-10-12T11:20:28.284Z,51.60
2017-10-12T11:22:54.700Z,50.40
2017-10-12T11:25:21.730Z,49.50
2017-10-12T11:27:48.053Z,49.50
2017-10-12T11:30:14.357Z,49.90
2017-10-12T11:32:40.692Z,49.90
2017-10-12T11:35:06.988Z,48.40
2017-10-12T11:37:33.268Z,46.80
2017-10-12T11:39:59.601Z,48.20
2017-10-12T11:42:25.895Z,47.30
2017-10-12T11:44:52.200Z,46.90
2017-10-12T11:47:18.464Z,47.00
2017-10-12T11:49:44.792Z,47.80
2017-10-12T11:52:11.078Z,48.00
2017-10-12T11:54:38.129Z,47.70
2017-10-12T11:57:04.405Z,47.60
2017-10-12T11:59:30.731Z,48.50
2017-10-12T12:01:57.053Z,48.60
2017-10-12T12:04:23.342Z,47.90
2017-10-12T12:06:49.700Z,48.20
2017-10-12T12:09:15.988Z,47.80
2017-10-12T12:11:43.079Z,47.30
2017-10-12T12:14:09.356Z,47.40
2017-10-12T12:16:35.662Z,48.10
2017-10-12T12:19:01.969Z,48.50
2017-10-12T12:21:28.279Z,48.70
2017-10-12T12:23:54.765Z,50.60
2017-10-12T12:26:21.178Z,49.50
2017-10-12T12:28:47.458Z,49.80
2017-10-12T12:31:14.565Z,50.30
2017-10-12T12:33:40.920Z,50.30
2017-10-12T12:36:07.232Z,50.00
2017-10-12T12:38:33.590Z,50.00
2017-10-12T12:41:00.613Z,49.70
2017-10-12T12:43:26.992Z,49.70
2017-10-12T12:45:53.299Z,49.50
2017-10-12T12:48:20.369Z,50.00
2017-10-12T12:50:46.664Z,50.00
2017-10-12T12:53:12.968Z,49.30
2017-10-12T12:55:39.302Z,47.80
2017-10-12T12:58:05.584Z,49.00
2017-10-12T13:00:31.902Z,49.70
2017-10-12T13:02:58.937Z,49.30
2017-10-12T13:05:25.247Z,49.30
2017-10-12T13:07:51.540Z,49.60
2017-10-12T13:10:17.844Z,49.80
2017-10-12T13:12:44.168Z,50.90
2017-10-12T13:15:11.216Z,50.50
2017-10-12T13:17:38.252Z,51.10
2017-10-12T13:20:04.535Z,51.00
2017-10-12T13:22:30.883Z,51.00
2017-10-12T13:24:57.180Z,50.40
2017-10-12T13:27:23.502Z,51.40
2017-10-12T13:29:49.800Z,52.00
2017-10-12T13:32:16.136Z,52.50
2017-10-12T13:34:43.356Z,50.90
2017-10-12T13:37:09.637Z,50.90
2017-10-12T13:39:36.004Z,51.70
2017-10-12T13:42:02.313Z,52.40
2017-10-12T13:44:28.599Z,53.50
2017-10-12T13:46:56.398Z,52.70
2017-10-12T13:49:22.715Z,52.70
2017-10-12T13:51:49.773Z,53.80
2017-10-12T13:54:16.174Z,53.80
2017-10-12T13:56:42.496Z,54.10
2017-10-12T14:12:13.445Z,54.70
2017-10-12T14:14:40.493Z,55.70
2017-10-12T14:17:07.554Z,54.60
2017-10-12T14:19:33.828Z,54.60
2017-10-12T14:22:00.162Z,54.80
2017-10-12T14:24:26.440Z,55.50
2017-10-12T14:26:52.796Z,56.20
2017-10-12T14:29:19.149Z,55.60
2017-10-12T14:31:45.431Z,56.10
2017-10-12T14:34:11.744Z,56.00
2017-10-12T14:36:38.875Z,55.80
2017-10-12T14:39:05.198Z,55.80
2017-10-12T14:41:31.640Z,56.30
2017-10-12T14:43:58.101Z,56.50
2017-10-12T14:46:24.405Z,56.40
2017-10-12T14:48:50.737Z,56.10
2017-10-12T14:51:17.780Z,56.00
2017-10-12T14:53:44.858Z,57.40
2017-10-12T14:56:11.136Z,56.70
2017-10-12T14:58:37.448Z,57.60
2017-10-12T15:01:03.756Z,57.60
2017-10-12T15:03:30.044Z,57.40
2017-10-12T15:05:56.363Z,58.20
2017-10-12T15:08:22.662Z,58.10
2017-10-12T15:10:48.988Z,59.20
2017-10-12T15:13:15.344Z,57.70
2017-10-12T15:15:42.523Z,57.90
2017-10-12T15:18:09.565Z,57.90
2017-10-12T15:20:36.615Z,57.70
2017-10-12T15:23:03.669Z,57.80
2017-10-12T15:25:30.769Z,58.80
2017-10-12T15:27:58.048Z,58.80
2017-10-12T15:30:24.350Z,60.00
2017-10-12T15:32:50.679Z,60.40
2017-10-12T15:35:17.002Z,60.20
2017-10-12T15:37:43.309Z,60.40
2017-10-12T15:40:09.617Z,61.60
2017-10-12T15:42:36.685Z,61.80
2017-10-12T15:45:03.055Z,61.70
2017-10-12T15:47:29.388Z,62.40
2017-10-12T15:49:55.764Z,61.90
2017-10-12T15:52:23.017Z,62.50
2017-10-12T15:54:50.167Z,63.30
2017-10-12T15:57:17.169Z,63.10
2017-10-12T15:59:43.522Z,63.10
2017-10-12T16:02:10.012Z,63.90
2017-10-12T16:04:36.317Z,65.50
2017-10-12T16:07:03.555Z,66.30
2017-10-12T16:09:30.644Z,66.80
2017-10-12T16:11:57.132Z,66.80
2017-10-12T16:14:24.171Z,67.60
2017-10-12T16:16:51.260Z,68.60
2017-10-12T16:19:17.578Z,68.50
2017-10-12T16:21:43.884Z,69.40
2017-10-12T16:24:11.137Z,71.40
2017-10-12T16:26:38.220Z,72.30
2017-10-12T16:29:04.545Z,72.30
2017-10-12T16:31:30.980Z,73.30
2017-10-12T16:33:57.272Z,74.00
2017-10-12T16:36:23.628Z,74.70
2017-10-12T16:38:50.714Z,75.70
2017-10-12T16:41:17.104Z,76.40
2017-10-12T16:43:43.468Z,76.50
2017-10-12T16:46:09.813Z,77.30
2017-10-12T16:48:36.108Z,77.80
2017-10-12T16:51:02.516Z,78.20
2017-10-12T16:53:29.538Z,80.00
2017-10-12T16:55:55.880Z,80.00
2017-10-12T16:58:23.673Z,81.00
2017-10-12T17:00:50.728Z,81.50
2017-10-12T17:03:17.037Z,81.50
2017-10-12T17:05:44.092Z,83.00
2017-10-12T17:08:11.155Z,83.20
2017-10-12T17:13:03.752Z,84.10
2017-10-12T17:15:30.089Z,84.90
2017-10-12T17:17:56.438Z,85.60
2017-10-12T17:20:23.522Z,87.80
2017-10-12T17:22:49.861Z,87.30
2017-10-12T17:25:16.245Z,87.80
2017-10-12T17:27:43.541Z,88.40
2017-10-12T17:30:10.454Z,89.00
2017-10-12T17:32:37.518Z,89.30
2017-10-12T17:35:04.588Z,89.40
2017-10-12T17:37:31.013Z,89.40
2017-10-12T17:39:58.159Z,89.50
2017-10-12T17:42:25.217Z,90.00
2017-10-12T17:44:51.568Z,90.30
2017-10-12T17:47:17.881Z,90.60
2017-10-12T17:49:44.205Z,91.20
2017-10-12T17:52:10.512Z,91.50
2017-10-12T17:54:37.578Z,92.30
2017-10-12T17:57:03.931Z,92.30
2017-10-12T17:59:30.238Z,92.50
2017-10-12T18:01:56.745Z,92.90
2017-10-12T18:04:54.361Z,93.60
2017-10-12T18:06:51.001Z,93.60
2017-10-12T18:09:17.421Z,93.90
2017-10-12T18:11:43.730Z,94.20
2017-10-12T18:14:10.079Z,94.80
2017-10-12T18:16:36.425Z,95.10
2017-10-12T18:19:02.884Z,95.50
2017-10-12T18:21:29.231Z,95.80
2017-10-12T18:23:56.284Z,96.00
2017-10-12T18:26:23.338Z,96.20
2017-10-12T18:28:50.402Z,96.20
2017-10-12T18:31:16.740Z,96.20
2017-10-12T18:33:43.083Z,96.00
2017-10-12T18:36:09.523Z,95.90
2017-10-12T18:38:35.874Z,96.10
2017-10-12T18:41:02.324Z,96.30
2017-10-12T18:43:28.797Z,96.70
2017-10-12T18:45:55.121Z,96.60
2017-10-12T18:48:21.622Z,96.60
2017-10-12T18:50:50.011Z,97.40
2017-10-12T18:53:16.496Z,97.40
2017-10-12T18:55:43.135Z,97.40
2017-10-12T18:58:09.505Z,97.50
2017-10-12T19:00:35.984Z,98.00
2017-10-12T19:03:02.618Z,98.20
2017-10-12T19:05:29.015Z,98.60
2017-10-12T19:07:56.264Z,98.80
2017-10-12T19:10:23.324Z,99.20
2017-10-12T19:12:50.443Z,99.70
2017-10-12T19:15:16.804Z,99.70
2017-10-12T19:17:43.870Z,99.90
2017-10-12T19:20:10.218Z,99.90
2017-10-12T19:22:36.537Z,99.90
2017-10-12T19:25:02.873Z,99.90
2017-10-12T19:27:29.169Z,99.90
2017-10-12T19:29:56.365Z,99.90
2017-10-12T19:32:22.724Z,99.90
2017-10-12T19:34:49.064Z,99.90
2017-10-12T19:37:15.390Z,99.90
2017-10-12T19:39:41.706Z,99.90
2017-10-12T19:42:08.066Z,99.90
2017-10-12T19:44:35.142Z,99.90
2017-10-12T19:47:01.465Z,99.90
2017-10-12T19:49:27.941Z,99.90
2017-10-12T19:51:54.413Z,99.90
2017-10-12T19:54:21.558Z,99.90
2017-10-12T19:56:48.668Z,99.90
2017-10-12T19:59:15.057Z,99.90
2017-10-12T20:01:42.134Z,99.90
2017-10-12T20:04:08.479Z,99.90
2017-10-12T20:06:34.785Z,99.90
2017-10-12T20:09:01.157Z,99.90
2017-10-12T20:11:27.575Z,99.90
2017-10-12T20:16:20.308Z,99.90
2017-10-12T20:21:13.688Z,99.90
2017-10-12T20:23:40.005Z,99.90
2017-10-12T20:26:06.339Z,99.90
2017-10-12T20:28:32.661Z,99.90
2017-10-12T20:30:59.745Z,99.90
2017-10-12T20:33:26.053Z,99.90
2017-10-12T20:35:52.388Z,99.90
2017-10-12T20:38:18.688Z,99.90
2017-10-12T20:40:45.740Z,99.90
2017-10-12T20:43:12.882Z,99.90
2017-10-12T20:45:39.984Z,99.90
2017-10-12T20:48:06.285Z,99.90
2017-10-12T20:50:32.634Z,99.90
2017-10-12T20:52:59.190Z,99.90
2017-10-12T20:55:25.567Z,99.90
2017-10-12T20:57:52.865Z,99.90
2017-10-12T21:00:19.224Z,99.90
2017-10-12T21:02:48.652Z,99.90
2017-10-12T21:05:12.753Z,99.90
2017-10-12T21:07:39.156Z,99.90
2017-10-12T21:10:06.241Z,99.90
2017-10-12T21:12:32.570Z,99.90
2017-10-12T21:14:58.885Z,99.90
2017-10-12T21:17:25.290Z,99.90
2017-10-12T21:19:51.679Z,99.90
2017-10-12T21:22:18.004Z,99.90
2017-10-12T21:24:45.355Z,99.90
2017-10-12T21:27:11.778Z,99.90
2017-10-12T21:29:38.307Z,99.90
2017-10-12T21:32:04.748Z,99.90
2017-10-12T21:34:31.164Z,99.90
2017-10-12T21:36:57.683Z,99.90
2017-10-12T21:39:24.788Z,99.90
2017-10-12T21:41:51.237Z,99.90
2017-10-12T21:44:17.648Z,99.90
2017-10-12T21:46:43.964Z,99.90
2017-10-12T21:49:10.339Z,99.90
2017-10-12T21:51:36.767Z,99.90
2017-10-12T21:54:03.059Z,99.90
2017-10-12T21:56:29.390Z,99.90
2017-10-12T21:58:55.672Z,99.90
2017-10-12T22:01:21.982Z,99.90
2017-10-12T22:03:48.285Z,99.90
2017-10-12T22:06:14.672Z,99.90
2017-10-12T22:08:41.712Z,99.90
2017-10-12T22:11:08.888Z,99.90
2017-10-12T22:13:35.455Z,99.90
2017-10-12T22:16:01.814Z,99.90
2017-10-12T22:18:28.168Z,99.90
2017-10-12T22:20:55.239Z,99.90
2017-10-12T22:23:21.585Z,99.90
2017-10-12T22:25:47.951Z,99.90
2017-10-12T22:28:14.248Z,99.90
2017-10-12T22:30:41.189Z,99.90
2017-10-12T22:33:07.518Z,99.90
2017-10-12T22:35:33.884Z,99.90
2017-10-12T22:38:00.227Z,99.90
2017-10-12T22:40:26.563Z,99.90
2017-10-12T22:42:53.080Z,99.90
2017-10-12T22:45:19.435Z,99.90
2017-10-12T22:47:45.744Z,99.90
2017-10-12T22:50:12.053Z,99.90
2017-10-12T22:52:38.350Z,99.90
2017-10-12T22:55:04.644Z,99.90
2017-10-12T22:57:31.034Z,99.90
2017-10-12T22:59:57.345Z,99.90
2017-10-12T23:02:23.650Z,99.90
2017-10-12T23:04:50.696Z,99.90
2017-10-12T23:07:17.744Z,99.90
2017-10-12T23:09:44.833Z,99.90
2017-10-12T23:12:11.138Z,99.90
2017-10-12T23:14:37.409Z,99.90
2017-10-12T23:17:03.716Z,99.90
2017-10-12T23:19:30.021Z,99.90
2017-10-12T23:21:56.508Z,99.90
2017-10-12T23:24:22.811Z,99.90
2017-10-12T23:26:49.281Z,99.90
2017-10-12T23:29:15.653Z,99.90
2017-10-12T23:31:41.938Z,99.90
2017-10-12T23:34:08.248Z,99.90
2017-10-12T23:36:34.525Z,99.90
2017-10-12T23:39:01.576Z,99.90
2017-10-12T23:41:28.611Z,99.90
2017-10-12T23:43:54.910Z,99.90
2017-10-12T23:46:21.221Z,99.90
2017-10-12T23:48:47.516Z,99.90
2017-10-12T23:51:14.556Z,99.90
2017-10-12T23:53:41.580Z,99.90
2017-10-12T23:56:07.874Z,99.90
2017-10-12T23:58:34.200Z,99.90
